sensor_id;sensor_type;location;lat;lon;timestamp;temperature;humidity
65207;SHT31;58477;48.072;11.970;2023-03-18T00:00:48;4.60;88.57
65207;SHT31;58477;48.072;11.970;2023-03-18T00:03:18;4.61;88.87
65207;SHT31;58477;48.072;11.970;2023-03-18T00:05:44;4.66;88.75
65207;SHT31;58477;48.072;11.970;2023-03-18T00:08:09;4.70;89.38
65207;SHT31;58477;48.072;11.970;2023-03-18T00:10:35;4.64;90.07
65207;SHT31;58477;48.072;11.970;2023-03-18T00:13:01;4.59;90.32
65207;SHT31;58477;48.072;11.970;2023-03-18T00:15:29;4.64;90.61
65207;SHT31;58477;48.072;11.970;2023-03-18T00:17:54;4.50;90.86
65207;SHT31;58477;48.072;11.970;2023-03-18T00:20:23;4.53;90.90
65207;SHT31;58477;48.072;11.970;2023-03-18T00:23:03;4.36;90.91
65207;SHT31;58477;48.072;11.970;2023-03-18T00:25:28;4.50;91.16
65207;SHT31;58477;48.072;11.970;2023-03-18T00:27:53;4.46;91.06
65207;SHT31;58477;48.072;11.970;2023-03-18T00:30:20;4.25;91.11
65207;SHT31;58477;48.072;11.970;2023-03-18T00:32:46;4.16;91.23
65207;SHT31;58477;48.072;11.970;2023-03-18T00:35:13;4.10;91.72
65207;SHT31;58477;48.072;11.970;2023-03-18T00:37:38;4.22;92.12
65207;SHT31;58477;48.072;11.970;2023-03-18T00:40:11;4.47;91.03
65207;SHT31;58477;48.072;11.970;2023-03-18T00:42:43;4.70;89.92
65207;SHT31;58477;48.072;11.970;2023-03-18T00:45:14;4.84;89.54
65207;SHT31;58477;48.072;11.970;2023-03-18T00:47:41;4.88;89.44
65207;SHT31;58477;48.072;11.970;2023-03-18T00:50:08;4.91;89.39
65207;SHT31;58477;48.072;11.970;2023-03-18T00:52:34;4.92;89.46
65207;SHT31;58477;48.072;11.970;2023-03-18T00:55:00;5.04;89.43
65207;SHT31;58477;48.072;11.970;2023-03-18T00:57:28;5.07;89.14
65207;SHT31;58477;48.072;11.970;2023-03-18T00:59:55;4.81;89.12
65207;SHT31;58477;48.072;11.970;2023-03-18T01:02:21;4.66;89.45
65207;SHT31;58477;48.072;11.970;2023-03-18T01:04:48;4.47;89.92
65207;SHT31;58477;48.072;11.970;2023-03-18T01:07:15;4.32;90.41
65207;SHT31;58477;48.072;11.970;2023-03-18T01:09:41;4.29;90.77
65207;SHT31;58477;48.072;11.970;2023-03-18T01:12:09;4.15;91.46
65207;SHT31;58477;48.072;11.970;2023-03-18T01:14:35;4.02;91.31
65207;SHT31;58477;48.072;11.970;2023-03-18T01:17:03;4.02;92.07
65207;SHT31;58477;48.072;11.970;2023-03-18T01:19:29;4.10;92.18
65207;SHT31;58477;48.072;11.970;2023-03-18T01:21:54;3.98;92.31
65207;SHT31;58477;48.072;11.970;2023-03-18T01:24:21;3.99;92.26
65207;SHT31;58477;48.072;11.970;2023-03-18T01:26:47;3.88;92.47
65207;SHT31;58477;48.072;11.970;2023-03-18T01:29:12;3.83;92.76
65207;SHT31;58477;48.072;11.970;2023-03-18T01:31:38;3.88;93.22
65207;SHT31;58477;48.072;11.970;2023-03-18T01:34:09;3.81;93.26
65207;SHT31;58477;48.072;11.970;2023-03-18T01:36:48;3.79;93.92
65207;SHT31;58477;48.072;11.970;2023-03-18T01:39:15;3.82;93.88
65207;SHT31;58477;48.072;11.970;2023-03-18T01:41:43;3.85;93.90
65207;SHT31;58477;48.072;11.970;2023-03-18T01:44:21;3.88;93.85
65207;SHT31;58477;48.072;11.970;2023-03-18T01:46:49;4.12;94.10
65207;SHT31;58477;48.072;11.970;2023-03-18T01:49:27;4.09;93.45
65207;SHT31;58477;48.072;11.970;2023-03-18T01:54:26;4.05;93.54
65207;SHT31;58477;48.072;11.970;2023-03-18T01:56:53;4.12;93.39
65207;SHT31;58477;48.072;11.970;2023-03-18T01:59:21;4.03;93.31
65207;SHT31;58477;48.072;11.970;2023-03-18T02:02:01;4.09;93.55
65207;SHT31;58477;48.072;11.970;2023-03-18T02:04:39;4.16;93.39
65207;SHT31;58477;48.072;11.970;2023-03-18T02:07:12;4.17;93.58
65207;SHT31;58477;48.072;11.970;2023-03-18T02:09:38;4.15;93.18
65207;SHT31;58477;48.072;11.970;2023-03-18T02:12:05;4.03;93.56
65207;SHT31;58477;48.072;11.970;2023-03-18T02:14:31;3.95;93.72
65207;SHT31;58477;48.072;11.970;2023-03-18T02:17:15;4.20;93.58
65207;SHT31;58477;48.072;11.970;2023-03-18T02:19:48;4.17;93.14
65207;SHT31;58477;48.072;11.970;2023-03-18T02:22:29;4.05;93.16
65207;SHT31;58477;48.072;11.970;2023-03-18T02:27:35;3.99;93.00
65207;SHT31;58477;48.072;11.970;2023-03-18T02:30:10;4.39;92.81
65207;SHT31;58477;48.072;11.970;2023-03-18T02:32:38;4.32;92.37
65207;SHT31;58477;48.072;11.970;2023-03-18T02:35:07;4.22;91.62
65207;SHT31;58477;48.072;11.970;2023-03-18T02:37:35;4.01;92.45
65207;SHT31;58477;48.072;11.970;2023-03-18T02:40:34;3.95;93.14
65207;SHT31;58477;48.072;11.970;2023-03-18T02:43:30;3.95;93.59
65207;SHT31;58477;48.072;11.970;2023-03-18T02:48:51;4.56;92.51
65207;SHT31;58477;48.072;11.970;2023-03-18T02:51:17;4.97;90.72
65207;SHT31;58477;48.072;11.970;2023-03-18T02:53:44;5.05;90.17
65207;SHT31;58477;48.072;11.970;2023-03-18T02:56:10;4.83;90.27
65207;SHT31;58477;48.072;11.970;2023-03-18T02:58:38;4.85;90.35
65207;SHT31;58477;48.072;11.970;2023-03-18T03:01:05;4.67;90.64
65207;SHT31;58477;48.072;11.970;2023-03-18T03:03:33;4.42;90.94
65207;SHT31;58477;48.072;11.970;2023-03-18T03:06:00;4.16;91.65
65207;SHT31;58477;48.072;11.970;2023-03-18T03:08:26;4.09;92.31
65207;SHT31;58477;48.072;11.970;2023-03-18T03:10:52;4.17;91.92
65207;SHT31;58477;48.072;11.970;2023-03-18T03:13:19;4.07;92.31
65207;SHT31;58477;48.072;11.970;2023-03-18T03:15:47;3.98;92.80
65207;SHT31;58477;48.072;11.970;2023-03-18T03:18:13;3.99;93.03
65207;SHT31;58477;48.072;11.970;2023-03-18T03:20:39;3.99;92.74
65207;SHT31;58477;48.072;11.970;2023-03-18T03:23:07;3.89;92.85
65207;SHT31;58477;48.072;11.970;2023-03-18T03:25:33;3.81;92.97
65207;SHT31;58477;48.072;11.970;2023-03-18T03:28:00;3.78;93.09
65207;SHT31;58477;48.072;11.970;2023-03-18T03:30:27;3.81;93.26
65207;SHT31;58477;48.072;11.970;2023-03-18T03:32:53;3.72;93.17
65207;SHT31;58477;48.072;11.970;2023-03-18T03:35:19;3.79;93.53
65207;SHT31;58477;48.072;11.970;2023-03-18T03:37:45;3.79;93.32
65207;SHT31;58477;48.072;11.970;2023-03-18T03:40:13;3.74;93.25
65207;SHT31;58477;48.072;11.970;2023-03-18T03:42:40;3.72;93.12
65207;SHT31;58477;48.072;11.970;2023-03-18T03:45:08;3.77;92.89
65207;SHT31;58477;48.072;11.970;2023-03-18T03:47:34;3.86;92.61
65207;SHT31;58477;48.072;11.970;2023-03-18T03:50:02;3.91;91.88
65207;SHT31;58477;48.072;11.970;2023-03-18T03:52:28;3.78;92.58
65207;SHT31;58477;48.072;11.970;2023-03-18T03:54:54;3.77;91.72
65207;SHT31;58477;48.072;11.970;2023-03-18T03:57:22;3.77;92.49
65207;SHT31;58477;48.072;11.970;2023-03-18T03:59:49;3.83;92.46
65207;SHT31;58477;48.072;11.970;2023-03-18T04:02:20;4.22;89.72
65207;SHT31;58477;48.072;11.970;2023-03-18T04:04:48;4.13;89.94
65207;SHT31;58477;48.072;11.970;2023-03-18T04:07:23;4.09;89.79
65207;SHT31;58477;48.072;11.970;2023-03-18T04:09:48;4.29;87.72
65207;SHT31;58477;48.072;11.970;2023-03-18T04:12:14;4.40;87.74
65207;SHT31;58477;48.072;11.970;2023-03-18T04:14:46;4.74;85.20
65207;SHT31;58477;48.072;11.970;2023-03-18T04:17:12;5.39;83.10
65207;SHT31;58477;48.072;11.970;2023-03-18T04:19:37;5.58;82.22
65207;SHT31;58477;48.072;11.970;2023-03-18T04:22:04;5.25;83.40
65207;SHT31;58477;48.072;11.970;2023-03-18T04:24:30;5.25;83.88
65207;SHT31;58477;48.072;11.970;2023-03-18T04:26:55;5.18;84.04
65207;SHT31;58477;48.072;11.970;2023-03-18T04:29:22;5.18;84.29
65207;SHT31;58477;48.072;11.970;2023-03-18T04:31:47;5.08;84.64
65207;SHT31;58477;48.072;11.970;2023-03-18T04:34:13;4.95;84.96
65207;SHT31;58477;48.072;11.970;2023-03-18T04:36:39;5.31;84.26
65207;SHT31;58477;48.072;11.970;2023-03-18T04:39:05;5.42;83.81
65207;SHT31;58477;48.072;11.970;2023-03-18T04:41:34;5.44;83.65
65207;SHT31;58477;48.072;11.970;2023-03-18T04:44:02;5.41;83.56
65207;SHT31;58477;48.072;11.970;2023-03-18T04:46:37;5.34;83.79
65207;SHT31;58477;48.072;11.970;2023-03-18T04:49:02;5.34;83.63
65207;SHT31;58477;48.072;11.970;2023-03-18T04:51:29;5.52;83.38
65207;SHT31;58477;48.072;11.970;2023-03-18T04:53:55;5.77;82.59
65207;SHT31;58477;48.072;11.970;2023-03-18T04:56:24;5.97;81.62
65207;SHT31;58477;48.072;11.970;2023-03-18T04:58:52;5.82;82.25
65207;SHT31;58477;48.072;11.970;2023-03-18T05:01:21;5.56;82.80
65207;SHT31;58477;48.072;11.970;2023-03-18T05:03:49;5.44;83.14
65207;SHT31;58477;48.072;11.970;2023-03-18T05:06:20;5.14;84.15
65207;SHT31;58477;48.072;11.970;2023-03-18T05:08:53;5.07;83.97
65207;SHT31;58477;48.072;11.970;2023-03-18T05:11:20;5.34;83.35
65207;SHT31;58477;48.072;11.970;2023-03-18T05:13:46;5.54;82.65
65207;SHT31;58477;48.072;11.970;2023-03-18T05:16:15;5.70;82.48
65207;SHT31;58477;48.072;11.970;2023-03-18T05:18:40;5.59;82.45
65207;SHT31;58477;48.072;11.970;2023-03-18T05:21:07;5.35;83.10
65207;SHT31;58477;48.072;11.970;2023-03-18T05:23:33;5.35;82.97
65207;SHT31;58477;48.072;11.970;2023-03-18T05:26:00;5.15;83.70
65207;SHT31;58477;48.072;11.970;2023-03-18T05:28:27;5.02;83.93
65207;SHT31;58477;48.072;11.970;2023-03-18T05:31:16;4.98;84.34
65207;SHT31;58477;48.072;11.970;2023-03-18T05:33:42;4.90;84.45
65207;SHT31;58477;48.072;11.970;2023-03-18T05:36:10;4.85;84.80
65207;SHT31;58477;48.072;11.970;2023-03-18T05:38:46;4.90;84.25
65207;SHT31;58477;48.072;11.970;2023-03-18T05:41:11;5.28;83.63
65207;SHT31;58477;48.072;11.970;2023-03-18T05:43:39;5.69;82.69
65207;SHT31;58477;48.072;11.970;2023-03-18T05:46:05;5.73;82.83
65207;SHT31;58477;48.072;11.970;2023-03-18T05:48:41;5.73;82.58
65207;SHT31;58477;48.072;11.970;2023-03-18T05:51:08;5.69;82.75
65207;SHT31;58477;48.072;11.970;2023-03-18T05:53:35;5.69;82.95
65207;SHT31;58477;48.072;11.970;2023-03-18T05:56:13;5.77;82.63
65207;SHT31;58477;48.072;11.970;2023-03-18T05:58:40;5.76;82.81
65207;SHT31;58477;48.072;11.970;2023-03-18T06:01:17;5.86;82.56
65207;SHT31;58477;48.072;11.970;2023-03-18T06:03:44;5.99;82.00
65207;SHT31;58477;48.072;11.970;2023-03-18T06:06:10;6.24;81.43
65207;SHT31;58477;48.072;11.970;2023-03-18T06:08:38;6.33;81.17
65207;SHT31;58477;48.072;11.970;2023-03-18T06:11:03;6.47;80.80
65207;SHT31;58477;48.072;11.970;2023-03-18T06:13:29;6.55;80.83
65207;SHT31;58477;48.072;11.970;2023-03-18T06:15:56;6.60;80.47
65207;SHT31;58477;48.072;11.970;2023-03-18T06:18:22;6.67;80.58
65207;SHT31;58477;48.072;11.970;2023-03-18T06:20:47;6.78;80.63
65207;SHT31;58477;48.072;11.970;2023-03-18T06:23:14;6.99;80.24
65207;SHT31;58477;48.072;11.970;2023-03-18T06:25:40;7.11;79.45
65207;SHT31;58477;48.072;11.970;2023-03-18T06:28:06;7.23;79.37
65207;SHT31;58477;48.072;11.970;2023-03-18T06:30:32;7.39;79.47
65207;SHT31;58477;48.072;11.970;2023-03-18T06:32:59;7.50;78.50
65207;SHT31;58477;48.072;11.970;2023-03-18T06:35:25;7.70;77.79
65207;SHT31;58477;48.072;11.970;2023-03-18T06:37:53;7.93;77.76
65207;SHT31;58477;48.072;11.970;2023-03-18T06:40:19;8.01;77.41
65207;SHT31;58477;48.072;11.970;2023-03-18T06:42:46;8.17;77.22
65207;SHT31;58477;48.072;11.970;2023-03-18T06:45:22;8.40;76.83
65207;SHT31;58477;48.072;11.970;2023-03-18T06:47:58;8.57;76.39
65207;SHT31;58477;48.072;11.970;2023-03-18T06:50:26;8.54;75.92
65207;SHT31;58477;48.072;11.970;2023-03-18T06:52:51;8.69;75.72
65207;SHT31;58477;48.072;11.970;2023-03-18T06:55:23;8.96;74.76
65207;SHT31;58477;48.072;11.970;2023-03-18T06:57:49;9.02;75.15
65207;SHT31;58477;48.072;11.970;2023-03-18T07:00:19;9.12;75.37
65207;SHT31;58477;48.072;11.970;2023-03-18T07:02:47;9.33;74.81
65207;SHT31;58477;48.072;11.970;2023-03-18T07:05:14;9.50;75.92
65207;SHT31;58477;48.072;11.970;2023-03-18T07:07:41;9.70;76.45
65207;SHT31;58477;48.072;11.970;2023-03-18T07:10:16;9.99;76.51
65207;SHT31;58477;48.072;11.970;2023-03-18T07:12:42;10.21;73.62
65207;SHT31;58477;48.072;11.970;2023-03-18T07:15:08;10.76;72.78
65207;SHT31;58477;48.072;11.970;2023-03-18T07:17:33;10.89;72.56
65207;SHT31;58477;48.072;11.970;2023-03-18T07:19:59;11.30;73.51
65207;SHT31;58477;48.072;11.970;2023-03-18T07:22:24;11.57;71.31
65207;SHT31;58477;48.072;11.970;2023-03-18T07:24:50;12.14;69.90
65207;SHT31;58477;48.072;11.970;2023-03-18T07:27:16;12.29;67.61
65207;SHT31;58477;48.072;11.970;2023-03-18T07:29:42;12.12;66.82
65207;SHT31;58477;48.072;11.970;2023-03-18T07:32:07;12.35;65.36
65207;SHT31;58477;48.072;11.970;2023-03-18T07:34:34;13.20;65.33
65207;SHT31;58477;48.072;11.970;2023-03-18T07:37:00;13.44;65.65
65207;SHT31;58477;48.072;11.970;2023-03-18T07:39:26;14.09;64.51
65207;SHT31;58477;48.072;11.970;2023-03-18T07:41:52;13.97;66.43
65207;SHT31;58477;48.072;11.970;2023-03-18T07:44:25;13.30;67.99
65207;SHT31;58477;48.072;11.970;2023-03-18T07:46:50;13.37;66.55
65207;SHT31;58477;48.072;11.970;2023-03-18T07:49:16;13.41;66.52
65207;SHT31;58477;48.072;11.970;2023-03-18T07:51:42;13.36;67.01
65207;SHT31;58477;48.072;11.970;2023-03-18T07:54:07;13.72;64.98
65207;SHT31;58477;48.072;11.970;2023-03-18T07:56:33;14.06;62.14
65207;SHT31;58477;48.072;11.970;2023-03-18T07:58:59;14.36;62.17
65207;SHT31;58477;48.072;11.970;2023-03-18T08:01:24;14.63;60.75
65207;SHT31;58477;48.072;11.970;2023-03-18T08:03:50;14.94;60.32
65207;SHT31;58477;48.072;11.970;2023-03-18T08:06:15;15.74;57.67
65207;SHT31;58477;48.072;11.970;2023-03-18T08:08:41;15.87;58.90
65207;SHT31;58477;48.072;11.970;2023-03-18T08:11:08;15.78;57.01
65207;SHT31;58477;48.072;11.970;2023-03-18T08:13:35;15.59;57.09
65207;SHT31;58477;48.072;11.970;2023-03-18T08:16:01;15.74;59.03
65207;SHT31;58477;48.072;11.970;2023-03-18T08:18:26;15.72;58.18
65207;SHT31;58477;48.072;11.970;2023-03-18T08:20:52;15.11;56.73
65207;SHT31;58477;48.072;11.970;2023-03-18T08:23:17;15.35;58.44
65207;SHT31;58477;48.072;11.970;2023-03-18T08:25:47;15.38;59.15
65207;SHT31;58477;48.072;11.970;2023-03-18T08:28:14;15.59;56.36
65207;SHT31;58477;48.072;11.970;2023-03-18T08:30:40;15.62;57.39
65207;SHT31;58477;48.072;11.970;2023-03-18T08:33:06;15.19;56.55
65207;SHT31;58477;48.072;11.970;2023-03-18T08:35:32;15.23;59.23
65207;SHT31;58477;48.072;11.970;2023-03-18T08:37:58;16.19;57.80
65207;SHT31;58477;48.072;11.970;2023-03-18T08:40:23;15.31;58.83
65207;SHT31;58477;48.072;11.970;2023-03-18T08:42:50;16.77;56.27
65207;SHT31;58477;48.072;11.970;2023-03-18T08:45:16;17.51;54.82
65207;SHT31;58477;48.072;11.970;2023-03-18T08:47:41;17.35;55.37
65207;SHT31;58477;48.072;11.970;2023-03-18T08:50:07;16.72;57.27
65207;SHT31;58477;48.072;11.970;2023-03-18T08:52:33;17.23;55.59
65207;SHT31;58477;48.072;11.970;2023-03-18T08:54:59;17.99;55.01
65207;SHT31;58477;48.072;11.970;2023-03-18T08:57:24;17.41;56.40
65207;SHT31;58477;48.072;11.970;2023-03-18T08:59:52;16.18;57.92
65207;SHT31;58477;48.072;11.970;2023-03-18T09:02:18;16.72;57.91
65207;SHT31;58477;48.072;11.970;2023-03-18T09:05:20;17.51;55.16
65207;SHT31;58477;48.072;11.970;2023-03-18T09:07:46;16.33;58.71
65207;SHT31;58477;48.072;11.970;2023-03-18T09:10:13;17.32;57.09
65207;SHT31;58477;48.072;11.970;2023-03-18T09:12:40;17.78;55.80
65207;SHT31;58477;48.072;11.970;2023-03-18T09:15:07;18.30;54.03
65207;SHT31;58477;48.072;11.970;2023-03-18T09:17:35;18.32;54.37
65207;SHT31;58477;48.072;11.970;2023-03-18T09:20:03;18.46;54.12
65207;SHT31;58477;48.072;11.970;2023-03-18T09:22:29;18.23;53.49
65207;SHT31;58477;48.072;11.970;2023-03-18T09:24:54;18.57;54.38
65207;SHT31;58477;48.072;11.970;2023-03-18T09:27:20;18.37;55.04
65207;SHT31;58477;48.072;11.970;2023-03-18T09:29:45;18.30;54.97
65207;SHT31;58477;48.072;11.970;2023-03-18T09:32:11;17.79;56.10
65207;SHT31;58477;48.072;11.970;2023-03-18T09:34:36;18.32;54.97
65207;SHT31;58477;48.072;11.970;2023-03-18T09:37:01;18.16;54.99
65207;SHT31;58477;48.072;11.970;2023-03-18T09:39:27;16.74;55.32
65207;SHT31;58477;48.072;11.970;2023-03-18T09:44:57;18.44;50.59
65207;SHT31;58477;48.072;11.970;2023-03-18T09:47:44;19.28;49.53
65207;SHT31;58477;48.072;11.970;2023-03-18T09:53:13;18.76;48.48
65207;SHT31;58477;48.072;11.970;2023-03-18T09:55:44;19.06;49.38
65207;SHT31;58477;48.072;11.970;2023-03-18T10:01:16;19.59;47.22
65207;SHT31;58477;48.072;11.970;2023-03-18T10:03:50;19.28;47.67
65207;SHT31;58477;48.072;11.970;2023-03-18T10:06:21;18.43;48.82
65207;SHT31;58477;48.072;11.970;2023-03-18T10:08:57;18.91;47.44
65207;SHT31;58477;48.072;11.970;2023-03-18T10:11:31;20.03;45.44
65207;SHT31;58477;48.072;11.970;2023-03-18T10:17:02;21.17;43.01
65207;SHT31;58477;48.072;11.970;2023-03-18T10:19:31;20.95;43.69
65207;SHT31;58477;48.072;11.970;2023-03-18T10:24:53;20.43;44.00
65207;SHT31;58477;48.072;11.970;2023-03-18T10:27:27;20.95;44.05
65207;SHT31;58477;48.072;11.970;2023-03-18T10:33:01;21.95;43.34
65207;SHT31;58477;48.072;11.970;2023-03-18T10:35:36;22.49;40.26
65207;SHT31;58477;48.072;11.970;2023-03-18T10:38:43;22.56;42.63
65207;SHT31;58477;48.072;11.970;2023-03-18T10:41:13;23.22;40.39
65207;SHT31;58477;48.072;11.970;2023-03-18T10:43:39;22.06;41.91
65207;SHT31;58477;48.072;11.970;2023-03-18T10:46:05;21.24;43.68
65207;SHT31;58477;48.072;11.970;2023-03-18T10:48:37;20.53;43.30
65207;SHT31;58477;48.072;11.970;2023-03-18T10:51:37;20.70;42.89
65207;SHT31;58477;48.072;11.970;2023-03-18T10:56:48;20.26;43.38
65207;SHT31;58477;48.072;11.970;2023-03-18T10:59:19;20.88;42.13
65207;SHT31;58477;48.072;11.970;2023-03-18T11:01:53;19.79;45.07
65207;SHT31;58477;48.072;11.970;2023-03-18T11:04:23;21.12;42.88
65207;SHT31;58477;48.072;11.970;2023-03-18T11:06:58;21.62;41.65
65207;SHT31;58477;48.072;11.970;2023-03-18T11:09:35;21.49;42.47
65207;SHT31;58477;48.072;11.970;2023-03-18T11:12:05;21.41;41.85
65207;SHT31;58477;48.072;11.970;2023-03-18T11:14:32;21.88;41.27
65207;SHT31;58477;48.072;11.970;2023-03-18T11:17:17;21.82;41.46
65207;SHT31;58477;48.072;11.970;2023-03-18T11:19:47;21.14;41.78
65207;SHT31;58477;48.072;11.970;2023-03-18T11:22:26;21.37;41.28
65207;SHT31;58477;48.072;11.970;2023-03-18T11:27:42;21.74;41.55
65207;SHT31;58477;48.072;11.970;2023-03-18T11:32:35;21.27;42.38
65207;SHT31;58477;48.072;11.970;2023-03-18T11:35:05;21.95;42.50
65207;SHT31;58477;48.072;11.970;2023-03-18T11:37:37;22.47;42.88
65207;SHT31;58477;48.072;11.970;2023-03-18T11:42:41;22.20;42.07
65207;SHT31;58477;48.072;11.970;2023-03-18T11:47:51;21.67;41.74
65207;SHT31;58477;48.072;11.970;2023-03-18T11:50:25;21.72;41.41
65207;SHT31;58477;48.072;11.970;2023-03-18T11:52:59;21.32;42.98
65207;SHT31;58477;48.072;11.970;2023-03-18T11:55:45;21.01;42.18
65207;SHT31;58477;48.072;11.970;2023-03-18T11:58:36;20.95;43.76
65207;SHT31;58477;48.072;11.970;2023-03-18T12:01:17;20.77;43.62
65207;SHT31;58477;48.072;11.970;2023-03-18T12:04:07;21.21;42.52
65207;SHT31;58477;48.072;11.970;2023-03-18T12:12:18;20.48;43.36
65207;SHT31;58477;48.072;11.970;2023-03-18T12:15:08;20.30;41.54
65207;SHT31;58477;48.072;11.970;2023-03-18T12:17:47;20.50;41.69
65207;SHT31;58477;48.072;11.970;2023-03-18T12:20:40;20.47;44.16
65207;SHT31;58477;48.072;11.970;2023-03-18T12:26:43;19.71;44.51
65207;SHT31;58477;48.072;11.970;2023-03-18T12:29:40;19.71;45.21
65207;SHT31;58477;48.072;11.970;2023-03-18T12:32:23;20.09;43.17
65207;SHT31;58477;48.072;11.970;2023-03-18T12:38:53;19.48;45.25
65207;SHT31;58477;48.072;11.970;2023-03-18T12:44:29;19.61;44.48
65207;SHT31;58477;48.072;11.970;2023-03-18T12:49:27;19.17;45.96
65207;SHT31;58477;48.072;11.970;2023-03-18T12:52:06;19.27;46.24
65207;SHT31;58477;48.072;11.970;2023-03-18T12:54:38;19.06;46.22
65207;SHT31;58477;48.072;11.970;2023-03-18T12:57:10;18.87;45.52
65207;SHT31;58477;48.072;11.970;2023-03-18T12:59:42;18.61;46.20
65207;SHT31;58477;48.072;11.970;2023-03-18T13:05:47;18.46;46.98
65207;SHT31;58477;48.072;11.970;2023-03-18T13:11:33;17.96;46.80
65207;SHT31;58477;48.072;11.970;2023-03-18T13:16:46;17.95;46.56
65207;SHT31;58477;48.072;11.970;2023-03-18T13:19:14;18.08;46.93
65207;SHT31;58477;48.072;11.970;2023-03-18T13:21:45;18.12;47.55
65207;SHT31;58477;48.072;11.970;2023-03-18T13:27:31;17.72;48.35
65207;SHT31;58477;48.072;11.970;2023-03-18T13:38:56;17.52;48.97
65207;SHT31;58477;48.072;11.970;2023-03-18T13:43:59;17.62;50.06
65207;SHT31;58477;48.072;11.970;2023-03-18T13:46:29;17.68;49.67
65207;SHT31;58477;48.072;11.970;2023-03-18T13:48:56;17.51;50.40
65207;SHT31;58477;48.072;11.970;2023-03-18T13:53:55;17.61;50.06
65207;SHT31;58477;48.072;11.970;2023-03-18T14:02:43;17.44;50.00
65207;SHT31;58477;48.072;11.970;2023-03-18T14:04:47;17.61;49.77
65207;SHT31;58477;48.072;11.970;2023-03-18T14:07:19;17.68;50.50
65207;SHT31;58477;48.072;11.970;2023-03-18T14:09:58;17.58;49.92
65207;SHT31;58477;48.072;11.970;2023-03-18T14:15:40;17.59;49.71
65207;SHT31;58477;48.072;11.970;2023-03-18T14:18:23;17.57;50.06
65207;SHT31;58477;48.072;11.970;2023-03-18T14:20:55;17.34;49.99
65207;SHT31;58477;48.072;11.970;2023-03-18T14:25:49;17.42;51.09
65207;SHT31;58477;48.072;11.970;2023-03-18T14:28:24;17.35;51.18
65207;SHT31;58477;48.072;11.970;2023-03-18T14:30:58;17.57;51.13
65207;SHT31;58477;48.072;11.970;2023-03-18T14:37:03;17.54;51.94
65207;SHT31;58477;48.072;11.970;2023-03-18T14:41:56;17.41;52.80
65207;SHT31;58477;48.072;11.970;2023-03-18T14:44:34;17.34;52.30
65207;SHT31;58477;48.072;11.970;2023-03-18T14:47:15;17.24;52.31
65207;SHT31;58477;48.072;11.970;2023-03-18T14:49:54;17.39;51.67
65207;SHT31;58477;48.072;11.970;2023-03-18T14:52:35;17.34;51.74
65207;SHT31;58477;48.072;11.970;2023-03-18T14:55:11;17.17;51.66
65207;SHT31;58477;48.072;11.970;2023-03-18T15:01:46;17.04;52.04
65207;SHT31;58477;48.072;11.970;2023-03-18T15:04:21;17.13;50.92
65207;SHT31;58477;48.072;11.970;2023-03-18T15:06:47;17.20;50.82
65207;SHT31;58477;48.072;11.970;2023-03-18T15:09:17;17.24;50.45
65207;SHT31;58477;48.072;11.970;2023-03-18T15:11:45;17.13;50.89
65207;SHT31;58477;48.072;11.970;2023-03-18T15:14:30;17.28;50.49
65207;SHT31;58477;48.072;11.970;2023-03-18T15:17:00;17.38;51.16
65207;SHT31;58477;48.072;11.970;2023-03-18T15:19:27;17.21;52.72
65207;SHT31;58477;48.072;11.970;2023-03-18T15:21:55;17.10;53.45
65207;SHT31;58477;48.072;11.970;2023-03-18T15:24:24;16.88;53.39
65207;SHT31;58477;48.072;11.970;2023-03-18T15:26:59;16.83;53.38
65207;SHT31;58477;48.072;11.970;2023-03-18T15:29:32;16.64;53.29
65207;SHT31;58477;48.072;11.970;2023-03-18T15:34:40;16.59;53.94
65207;SHT31;58477;48.072;11.970;2023-03-18T15:40:24;16.22;54.34
65207;SHT31;58477;48.072;11.970;2023-03-18T15:42:54;16.10;54.20
65207;SHT31;58477;48.072;11.970;2023-03-18T15:45:24;16.30;53.42
65207;SHT31;58477;48.072;11.970;2023-03-18T15:47:51;16.42;54.22
65207;SHT31;58477;48.072;11.970;2023-03-18T15:52:43;16.59;54.19
65207;SHT31;58477;48.072;11.970;2023-03-18T15:55:33;16.62;54.76
65207;SHT31;58477;48.072;11.970;2023-03-18T15:57:59;16.49;54.43
65207;SHT31;58477;48.072;11.970;2023-03-18T16:00:25;16.36;54.42
65207;SHT31;58477;48.072;11.970;2023-03-18T16:02:51;16.19;54.55
65207;SHT31;58477;48.072;11.970;2023-03-18T16:05:20;16.16;52.90
65207;SHT31;58477;48.072;11.970;2023-03-18T16:07:46;16.08;54.18
65207;SHT31;58477;48.072;11.970;2023-03-18T16:10:12;15.92;54.14
65207;SHT31;58477;48.072;11.970;2023-03-18T16:12:43;15.88;54.65
65207;SHT31;58477;48.072;11.970;2023-03-18T16:15:15;15.88;54.10
65207;SHT31;58477;48.072;11.970;2023-03-18T16:17:44;15.68;54.84
65207;SHT31;58477;48.072;11.970;2023-03-18T16:20:21;15.61;54.84
65207;SHT31;58477;48.072;11.970;2023-03-18T16:22:48;15.55;55.79
65207;SHT31;58477;48.072;11.970;2023-03-18T16:25:13;15.43;55.65
65207;SHT31;58477;48.072;11.970;2023-03-18T16:27:44;15.31;56.12
65207;SHT31;58477;48.072;11.970;2023-03-18T16:30:25;15.13;57.13
65207;SHT31;58477;48.072;11.970;2023-03-18T16:32:53;15.16;56.75
65207;SHT31;58477;48.072;11.970;2023-03-18T16:35:24;14.97;57.53
65207;SHT31;58477;48.072;11.970;2023-03-18T16:37:51;14.83;58.05
65207;SHT31;58477;48.072;11.970;2023-03-18T16:40:25;14.72;58.06
65207;SHT31;58477;48.072;11.970;2023-03-18T16:42:51;14.59;58.47
65207;SHT31;58477;48.072;11.970;2023-03-18T16:45:24;14.55;58.88
65207;SHT31;58477;48.072;11.970;2023-03-18T16:47:54;14.39;59.26
65207;SHT31;58477;48.072;11.970;2023-03-18T16:50:23;14.35;60.06
65207;SHT31;58477;48.072;11.970;2023-03-18T16:52:49;14.33;59.88
65207;SHT31;58477;48.072;11.970;2023-03-18T16:55:16;14.25;60.21
65207;SHT31;58477;48.072;11.970;2023-03-18T16:57:48;14.16;60.17
65207;SHT31;58477;48.072;11.970;2023-03-18T17:00:18;14.11;60.57
65207;SHT31;58477;48.072;11.970;2023-03-18T17:02:47;14.05;60.90
65207;SHT31;58477;48.072;11.970;2023-03-18T17:05:14;14.04;60.93
65207;SHT31;58477;48.072;11.970;2023-03-18T17:07:42;13.98;61.20
65207;SHT31;58477;48.072;11.970;2023-03-18T17:10:10;13.81;61.79
65207;SHT31;58477;48.072;11.970;2023-03-18T17:12:36;13.81;62.58
65207;SHT31;58477;48.072;11.970;2023-03-18T17:15:02;13.65;63.05
65207;SHT31;58477;48.072;11.970;2023-03-18T17:17:33;13.57;63.30
65207;SHT31;58477;48.072;11.970;2023-03-18T17:20:03;13.47;64.00
65207;SHT31;58477;48.072;11.970;2023-03-18T17:22:38;13.31;63.74
65207;SHT31;58477;48.072;11.970;2023-03-18T17:25:04;13.30;64.03
65207;SHT31;58477;48.072;11.970;2023-03-18T17:27:37;13.36;63.74
65207;SHT31;58477;48.072;11.970;2023-03-18T17:30:19;13.36;63.46
65207;SHT31;58477;48.072;11.970;2023-03-18T17:32:46;13.27;63.64